Time;durP1;ratioP1;P1;durP2;ratioP2;P2;SDS_P1;SDS_P2;PMS_P1;PMS_P2;Temp;Humidity;BMP_temperature;BMP_pressure;BME280_temperature;BME280_humidity;BME280_pressure;Samples;Min_cycle;Max_cycle;Signal;HPM_P1;HPM_P2
2023/03/19 00:03:03;;;;;;;;;;;;;;;7.65;100.00;95293.22;10397244;28;1926;-65
2023/03/19 00:08:06;;;;;;;;;;;;;;;7.59;100.00;95305.00;10401329;28;1978;-64
2023/03/19 00:13:10;;;;;;;;;;;;;;;7.51;100.00;95314.34;10402678;28;2062;-64
2023/03/19 00:18:12;;;;;;;;;;;;;;;7.51;100.00;95306.31;10405303;28;2228;-65
2023/03/19 00:23:15;;;;;;;;;;;;;;;7.55;100.00;95304.72;10400437;28;1944;-65
2023/03/19 00:28:18;;;;;;;;;;;;;;;7.51;100.00;95298.31;10403806;28;1969;-65
2023/03/19 00:33:22;;;;;;;;;;;;;;;7.51;100.00;95302.84;10401533;28;1957;-65
2023/03/19 00:38:26;;;;;;;;;;;;;;;7.46;100.00;95311.66;10399740;28;2073;-66
2023/03/19 00:43:28;;;;;;;;;;;;;;;7.39;100.00;95308.44;10408369;28;2060;-66
2023/03/19 00:48:31;;;;;;;;;;;;;;;7.29;100.00;95308.41;10405500;28;2185;-68
2023/03/19 00:53:33;;;;;;;;;;;;;;;7.13;100.00;95328.16;10400641;28;2056;-68
2023/03/19 00:58:37;;;;;;;;;;;;;;;7.05;100.00;95321.44;10433146;28;1987;-64
2023/03/19 01:03:39;;;;;;;;;;;;;;;6.97;100.00;95325.41;10403451;28;2049;-64
2023/03/19 01:08:42;;;;;;;;;;;;;;;6.89;100.00;95319.78;10401618;28;1989;-64
2023/03/19 01:13:45;;;;;;;;;;;;;;;6.74;100.00;95325.84;10400245;28;2217;-66
2023/03/19 01:18:47;;;;;;;;;;;;;;;6.58;100.00;95316.97;10400311;28;2394;-65
2023/03/19 01:23:51;;;;;;;;;;;;;;;6.58;100.00;95321.50;10397416;28;2095;-65
2023/03/19 01:28:55;;;;;;;;;;;;;;;6.61;100.00;95326.31;10410114;28;2403;-65
2023/03/19 01:33:58;;;;;;;;;;;;;;;6.68;100.00;95326.88;10403508;28;2069;-64
2023/03/19 01:39:01;;;;;;;;;;;;;;;6.67;100.00;95328.75;10399259;28;2033;-65
2023/03/19 01:44:14;;;;;;;;;;;;;;;6.60;100.00;95335.38;10429617;28;1943;-65
2023/03/19 01:49:17;;;;;;;;;;;;;;;6.55;100.00;95333.50;10396986;28;2075;-64
2023/03/19 01:54:20;;;;;;;;;;;;;;;6.47;100.00;95326.78;10395917;28;1966;-64
2023/03/19 01:59:23;;;;;;;;;;;;;;;6.40;100.00;95326.19;10395795;28;1945;-65
2023/03/19 02:04:26;;;;;;;;;;;;;;;6.41;100.00;95335.81;10401452;28;2232;-63
2023/03/19 02:09:29;;;;;;;;;;;;;;;6.43;100.00;95331.03;10404914;28;2023;-65
2023/03/19 02:14:33;;;;;;;;;;;;;;;6.43;100.00;95339.06;10416081;28;2314;-65
2023/03/19 02:19:35;;;;;;;;;;;;;;;6.39;100.00;95347.81;10409598;28;2069;-65
2023/03/19 02:24:38;;;;;;;;;;;;;;;6.37;100.00;95340.06;10406228;28;2051;-65
2023/03/19 02:29:41;;;;;;;;;;;;;;;6.37;100.00;95336.59;10398964;28;2159;-65
2023/03/19 02:34:43;;;;;;;;;;;;;;;6.34;100.00;95327.22;10408456;28;1932;-65
2023/03/19 02:39:45;;;;;;;;;;;;;;;6.30;100.00;95342.16;10410961;28;1969;-68
2023/03/19 02:44:48;;;;;;;;;;;;;;;6.25;100.00;95339.47;10411291;28;1980;-64
2023/03/19 02:49:51;;;;;;;;;;;;;;;6.31;100.00;95333.09;10409322;28;1976;-65
2023/03/19 02:54:54;;;;;;;;;;;;;;;6.36;100.00;95345.66;10411542;28;2157;-65
2023/03/19 02:59:56;;;;;;;;;;;;;;;6.39;100.00;95358.50;10408416;28;1981;-63
2023/03/19 03:04:59;;;;;;;;;;;;;;;6.37;100.00;95353.44;10413068;28;1998;-65
2023/03/19 03:10:02;;;;;;;;;;;;;;;6.35;100.00;95352.84;10408481;28;1977;-61
2023/03/19 03:15:04;;;;;;;;;;;;;;;6.36;100.00;95362.50;10400710;28;1914;-64
2023/03/19 03:20:07;;;;;;;;;;;;;;;6.39;100.00;95371.84;10406252;28;1974;-64
2023/03/19 03:25:11;;;;;;;;;;;;;;;6.43;100.00;95375.63;10411068;28;2194;-65
2023/03/19 03:30:15;;;;;;;;;;;;;;;6.47;100.00;95369.50;10408595;28;1946;-64
2023/03/19 03:35:21;;;;;;;;;;;;;;;6.50;100.00;95363.66;10408006;28;2079;-64
2023/03/19 03:40:24;;;;;;;;;;;;;;;6.45;100.00;95365.50;10407854;28;2221;-64
2023/03/19 03:45:27;;;;;;;;;;;;;;;6.43;100.00;95371.09;10404751;28;1998;-64
2023/03/19 03:50:31;;;;;;;;;;;;;;;6.40;100.00;95376.94;10402625;28;2074;-66
2023/03/19 03:55:38;;;;;;;;;;;;;;;6.43;100.00;95384.44;10401701;28;2049;-66
2023/03/19 04:00:40;;;;;;;;;;;;;;;6.49;100.00;95393.28;10404205;28;1988;-65
2023/03/19 04:05:43;;;;;;;;;;;;;;;6.57;100.00;95387.47;10405576;28;2148;-64
2023/03/19 04:10:46;;;;;;;;;;;;;;;6.64;100.00;95392.56;10403764;28;2275;-69
2023/03/19 04:15:50;;;;;;;;;;;;;;;6.72;100.00;95386.75;10426759;28;2169;-64
2023/03/19 04:20:52;;;;;;;;;;;;;;;6.79;100.00;95381.97;10403814;28;1971;-63
2023/03/19 04:26:00;;;;;;;;;;;;;;;6.89;100.00;95392.72;10401536;28;2002;-65
2023/03/19 04:31:04;;;;;;;;;;;;;;;6.90;100.00;95404.22;10404595;28;2231;-65
2023/03/19 04:36:07;;;;;;;;;;;;;;;6.99;100.00;95395.44;10401656;28;2108;-64
2023/03/19 04:41:09;;;;;;;;;;;;;;;7.06;100.00;95403.22;10402124;28;2026;-65
2023/03/19 04:46:13;;;;;;;;;;;;;;;7.16;100.00;95402.47;10406180;28;2041;-65
2023/03/19 04:51:15;;;;;;;;;;;;;;;7.21;100.00;95407.84;10409216;28;1954;-65
2023/03/19 04:56:18;;;;;;;;;;;;;;;7.27;100.00;95410.28;10402714;28;2208;-64
2023/03/19 05:01:21;;;;;;;;;;;;;;;7.36;100.00;95413.25;10408043;28;2047;-65
2023/03/19 05:06:23;;;;;;;;;;;;;;;7.40;100.00;95408.97;10405440;28;2188;-65
2023/03/19 05:11:26;;;;;;;;;;;;;;;7.40;100.00;95414.34;10394086;28;2213;-65
2023/03/19 05:16:28;;;;;;;;;;;;;;;7.44;100.00;95420.75;10406010;28;1989;-64
2023/03/19 05:21:41;;;;;;;;;;;;;;;7.46;100.00;95433.88;10401567;28;1977;-64
2023/03/19 05:26:45;;;;;;;;;;;;;;;7.56;100.00;95433.91;10398112;28;2240;-67
2023/03/19 05:31:48;;;;;;;;;;;;;;;7.58;100.00;95448.63;10398975;28;1966;-65
2023/03/19 05:36:50;;;;;;;;;;;;;;;7.62;100.00;95453.44;10402806;28;1970;-64
2023/03/19 05:41:53;;;;;;;;;;;;;;;7.69;100.00;95460.16;10398138;28;2186;-64
2023/03/19 05:46:56;;;;;;;;;;;;;;;7.77;100.00;95456.19;10398004;28;2025;-64
2023/03/19 05:51:59;;;;;;;;;;;;;;;7.80;100.00;95467.16;10398510;28;2118;-66
2023/03/19 05:57:08;;;;;;;;;;;;;;;7.96;100.00;95476.03;10399548;28;2223;-66
2023/03/19 06:02:20;;;;;;;;;;;;;;;7.97;100.00;95483.00;10392617;28;1990;-65
2023/03/19 06:07:24;;;;;;;;;;;;;;;8.00;100.00;95487.00;10397799;28;1976;-63
2023/03/19 06:12:26;;;;;;;;;;;;;;;8.12;100.00;95504.44;10399438;28;2171;-64
2023/03/19 06:17:29;;;;;;;;;;;;;;;8.16;100.00;95506.59;10402267;28;2002;-66
2023/03/19 06:22:31;;;;;;;;;;;;;;;8.25;100.00;95526.44;10401043;28;1982;-64
2023/03/19 06:27:34;;;;;;;;;;;;;;;8.28;100.00;95525.91;10400900;28;1973;-63
2023/03/19 06:32:37;;;;;;;;;;;;;;;8.35;100.00;95529.13;10402999;28;2020;-65
2023/03/19 06:37:39;;;;;;;;;;;;;;;8.40;100.00;95550.59;10401529;28;1989;-65
2023/03/19 06:42:42;;;;;;;;;;;;;;;8.50;100.00;95547.13;10400127;28;2008;-67
2023/03/19 06:47:45;;;;;;;;;;;;;;;8.44;100.00;95549.00;10393438;28;2138;-64
2023/03/19 06:52:48;;;;;;;;;;;;;;;8.54;100.00;95557.06;10400591;28;2029;-65
2023/03/19 06:57:51;;;;;;;;;;;;;;;8.66;100.00;95554.13;10393942;28;1966;-64
2023/03/19 07:02:55;;;;;;;;;;;;;;;8.81;100.00;95554.13;10407386;28;2011;-67
2023/03/19 07:07:57;;;;;;;;;;;;;;;8.88;100.00;95561.91;10409429;28;1954;-64
2023/03/19 07:13:00;;;;;;;;;;;;;;;8.97;100.00;95571.03;10401771;28;2032;-64
2023/03/19 07:18:03;;;;;;;;;;;;;;;8.89;100.00;95590.31;10401830;28;1983;-65
2023/03/19 07:23:06;;;;;;;;;;;;;;;9.01;100.00;95601.59;10405788;28;2002;-66
2023/03/19 07:28:09;;;;;;;;;;;;;;;9.24;100.00;95608.31;10406184;28;1961;-65
2023/03/19 07:33:11;;;;;;;;;;;;;;;9.66;100.00;95615.22;10396499;28;1974;-63
2023/03/19 07:38:15;;;;;;;;;;;;;;;10.01;100.00;95627.75;10396186;28;2035;-65
2023/03/19 07:43:18;;;;;;;;;;;;;;;10.40;100.00;95625.22;10405132;28;2045;-63
2023/03/19 07:48:20;;;;;;;;;;;;;;;10.33;100.00;95624.72;10403907;28;2043;-64
2023/03/19 07:53:23;;;;;;;;;;;;;;;10.55;100.00;95637.78;10405533;28;2033;-64
2023/03/19 07:58:26;;;;;;;;;;;;;;;10.42;100.00;95638.38;10393372;28;2155;-64
2023/03/19 08:03:29;;;;;;;;;;;;;;;10.43;100.00;95638.13;10394680;28;2004;-68
2023/03/19 08:08:33;;;;;;;;;;;;;;;10.54;100.00;95636.97;10397923;28;2135;-64
2023/03/19 08:13:36;;;;;;;;;;;;;;;10.46;100.00;95634.06;10397379;28;1949;-63
2023/03/19 08:18:39;;;;;;;;;;;;;;;10.44;100.00;95638.94;10400088;28;1971;-64
2023/03/19 08:23:42;;;;;;;;;;;;;;;10.65;100.00;95637.75;10406658;28;1955;-65
2023/03/19 08:28:44;;;;;;;;;;;;;;;10.75;100.00;95636.88;10407541;28;1959;-63
2023/03/19 08:33:47;;;;;;;;;;;;;;;10.82;100.00;95638.19;10407779;28;2077;-66
2023/03/19 08:38:53;;;;;;;;;;;;;;;10.65;100.00;95636.94;10409509;28;2151;-64
2023/03/19 08:43:55;;;;;;;;;;;;;;;10.52;100.00;95649.09;10399273;28;2005;-65
2023/03/19 08:48:59;;;;;;;;;;;;;;;10.68;100.00;95664.06;10403503;28;1954;-67
2023/03/19 08:54:02;;;;;;;;;;;;;;;10.74;100.00;95657.56;10400645;28;2173;-64
2023/03/19 08:59:11;;;;;;;;;;;;;;;10.82;100.00;95658.91;10404003;28;1982;-67
2023/03/19 09:04:14;;;;;;;;;;;;;;;10.78;100.00;95669.38;10398499;28;2117;-65
2023/03/19 09:09:17;;;;;;;;;;;;;;;10.89;100.00;95674.72;10397517;28;1974;-65
2023/03/19 09:14:21;;;;;;;;;;;;;;;10.96;100.00;95675.22;10404171;28;2057;-65
2023/03/19 09:19:24;;;;;;;;;;;;;;;11.12;100.00;95678.59;10394835;28;2151;-64
2023/03/19 09:24:27;;;;;;;;;;;;;;;11.75;100.00;95675.97;10397527;28;2118;-65
2023/03/19 09:29:30;;;;;;;;;;;;;;;11.94;100.00;95684.97;10398375;28;2063;-64
2023/03/19 09:34:32;;;;;;;;;;;;;;;12.42;100.00;95677.75;10398648;28;1978;-65
2023/03/19 09:39:36;;;;;;;;;;;;;;;12.66;100.00;95691.22;10399948;28;2005;-64
2023/03/19 09:44:38;;;;;;;;;;;;;;;12.54;100.00;95692.72;10395183;28;2231;-64
2023/03/19 09:49:41;;;;;;;;;;;;;;;12.03;100.00;95706.75;10399751;28;2084;-65
2023/03/19 09:54:45;;;;;;;;;;;;;;;12.00;100.00;95707.28;10395417;28;2225;-65
2023/03/19 09:59:48;;;;;;;;;;;;;;;12.03;100.00;95712.94;10398558;28;1999;-65
2023/03/19 10:04:51;;;;;;;;;;;;;;;12.10;100.00;95712.59;10399068;28;2295;-67
2023/03/19 10:09:54;;;;;;;;;;;;;;;12.17;100.00;95704.97;10404917;28;2007;-65
2023/03/19 10:14:56;;;;;;;;;;;;;;;12.26;100.00;95692.47;10396211;28;1986;-65
2023/03/19 10:19:59;;;;;;;;;;;;;;;12.22;100.00;95696.03;10397990;28;2222;-67
2023/03/19 10:25:01;;;;;;;;;;;;;;;12.57;100.00;95682.16;10400288;28;2115;-63
2023/03/19 10:30:04;;;;;;;;;;;;;;;13.19;100.00;95676.75;10392929;28;1973;-66
2023/03/19 10:35:06;;;;;;;;;;;;;;;13.68;100.00;95684.41;10398437;28;1962;-65
2023/03/19 10:40:09;;;;;;;;;;;;;;;13.38;100.00;95680.28;10403011;28;2018;-64
2023/03/19 10:45:12;;;;;;;;;;;;;;;13.47;100.00;95689.31;10403658;28;2021;-63
2023/03/19 10:50:15;;;;;;;;;;;;;;;13.75;100.00;95679.41;10403376;28;1997;-65
2023/03/19 10:55:27;;;;;;;;;;;;;;;13.88;100.00;95685.16;10397999;28;2017;-64
2023/03/19 11:00:39;;;;;;;;;;;;;;;13.30;100.00;95672.06;10403083;28;2045;-65
2023/03/19 11:05:43;;;;;;;;;;;;;;;13.67;100.00;95673.88;10402312;28;1996;-71
2023/03/19 11:10:45;;;;;;;;;;;;;;;13.67;100.00;95665.78;10410682;28;2052;-65
2023/03/19 11:15:48;;;;;;;;;;;;;;;13.53;100.00;95655.72;10401112;28;2069;-64
2023/03/19 11:20:50;;;;;;;;;;;;;;;13.18;100.00;95664.38;10405987;28;1958;-66
2023/03/19 11:25:53;;;;;;;;;;;;;;;13.07;100.00;95657.50;10403264;28;1952;-67
2023/03/19 11:30:57;;;;;;;;;;;;;;;12.57;100.00;95659.78;10408631;28;1950;-71
2023/03/19 11:36:01;;;;;;;;;;;;;;;12.98;100.00;95647.38;10403464;28;1962;-65
2023/03/19 11:41:05;;;;;;;;;;;;;;;13.63;100.00;95646.66;10403349;28;2016;-64
2023/03/19 11:46:07;;;;;;;;;;;;;;;14.05;100.00;95644.84;10393024;28;2057;-63
2023/03/19 11:51:11;;;;;;;;;;;;;;;13.93;100.00;95642.66;10400311;28;1986;-64
2023/03/19 11:56:13;;;;;;;;;;;;;;;14.18;100.00;95627.84;10434849;28;1987;-65
2023/03/19 12:01:17;;;;;;;;;;;;;;;14.31;100.00;95631.66;10404805;28;1982;-64
2023/03/19 12:06:20;;;;;;;;;;;;;;;13.79;100.00;95631.00;10407809;28;2128;-64
2023/03/19 12:11:24;;;;;;;;;;;;;;;14.34;100.00;95625.66;10405579;28;1937;-66
2023/03/19 12:16:26;;;;;;;;;;;;;;;14.92;100.00;95608.75;10401589;28;2160;-65
2023/03/19 12:21:29;;;;;;;;;;;;;;;14.79;100.00;95610.41;10405064;28;1978;-66
2023/03/19 12:26:32;;;;;;;;;;;;;;;14.37;100.00;95608.81;10403918;28;1985;-67
2023/03/19 12:31:35;;;;;;;;;;;;;;;14.17;100.00;95604.59;10397454;28;2044;-67
2023/03/19 12:36:37;;;;;;;;;;;;;;;14.63;100.00;95594.78;10400679;28;2504;-65
2023/03/19 12:41:40;;;;;;;;;;;;;;;14.64;98.71;95588.28;10403410;28;2381;-66
2023/03/19 12:46:43;;;;;;;;;;;;;;;14.69;97.17;95588.16;10398184;28;2064;-68
2023/03/19 12:51:56;;;;;;;;;;;;;;;15.08;94.14;95584.88;10402671;28;2008;-66
2023/03/19 12:56:58;;;;;;;;;;;;;;;14.97;93.80;95576.19;10399368;28;2108;-67
2023/03/19 13:02:00;;;;;;;;;;;;;;;14.90;91.93;95564.97;10404138;28;2024;-68
2023/03/19 13:07:04;;;;;;;;;;;;;;;15.07;91.51;95567.00;10408604;28;2060;-68
2023/03/19 13:12:09;;;;;;;;;;;;;;;14.79;89.79;95561.69;10399124;28;1948;-66
2023/03/19 13:17:12;;;;;;;;;;;;;;;14.41;90.46;95561.13;10397734;28;1973;-68
2023/03/19 13:22:16;;;;;;;;;;;;;;;14.42;89.14;95568.16;10401944;28;1998;-68
2023/03/19 13:27:19;;;;;;;;;;;;;;;14.50;89.08;95559.34;10405826;28;2170;-67
2023/03/19 13:32:22;;;;;;;;;;;;;;;14.46;90.09;95558.38;10402061;28;1966;-65
2023/03/19 13:37:26;;;;;;;;;;;;;;;14.27;88.60;95563.06;10399016;28;2011;-67
2023/03/19 13:42:29;;;;;;;;;;;;;;;14.02;97.36;95554.38;10399149;28;1986;-67
2023/03/19 13:47:35;;;;;;;;;;;;;;;13.82;99.73;95554.75;10402233;28;2030;-65
2023/03/19 13:52:38;;;;;;;;;;;;;;;13.92;98.24;95538.34;10399689;28;1994;-64
2023/03/19 13:57:40;;;;;;;;;;;;;;;14.00;98.16;95544.97;10398335;28;1979;-65
2023/03/19 14:02:43;;;;;;;;;;;;;;;13.86;97.89;95536.84;10401562;28;2072;-64
2023/03/19 14:07:46;;;;;;;;;;;;;;;14.39;93.56;95543.63;10403219;28;1998;-64
2023/03/19 14:12:49;;;;;;;;;;;;;;;14.38;92.39;95550.94;10405000;28;1949;-68
2023/03/19 14:17:52;;;;;;;;;;;;;;;14.19;93.78;95550.28;10410547;28;1931;-64
2023/03/19 14:22:55;;;;;;;;;;;;;;;14.17;94.19;95536.22;10412931;28;2115;-65
2023/03/19 14:27:58;;;;;;;;;;;;;;;14.16;91.42;95537.34;10414554;28;1954;-65
2023/03/19 14:33:01;;;;;;;;;;;;;;;14.18;91.22;95524.31;10414318;28;1981;-65
2023/03/19 14:38:04;;;;;;;;;;;;;;;13.95;95.11;95521.53;10413796;28;2177;-67
2023/03/19 14:43:06;;;;;;;;;;;;;;;13.65;94.37;95512.13;10410321;28;1982;-68
2023/03/19 14:48:09;;;;;;;;;;;;;;;13.67;96.01;95511.81;10412396;28;2023;-65
2023/03/19 14:53:13;;;;;;;;;;;;;;;14.17;94.95;95511.91;10412391;28;2079;-65
2023/03/19 14:58:16;;;;;;;;;;;;;;;14.12;92.52;95509.31;10413022;28;1981;-67
2023/03/19 15:03:18;;;;;;;;;;;;;;;14.14;91.79;95496.31;10408879;28;2079;-70
2023/03/19 15:08:21;;;;;;;;;;;;;;;14.12;90.75;95498.50;10412051;28;1954;-67
2023/03/19 15:13:23;;;;;;;;;;;;;;;14.16;89.80;95500.28;10406253;28;1823;-66
2023/03/19 15:18:26;;;;;;;;;;;;;;;14.60;86.80;95491.50;10411470;28;2008;-67
2023/03/19 15:23:35;;;;;;;;;;;;;;;14.31;87.25;95494.56;10400537;28;2053;-67
2023/03/19 15:28:38;;;;;;;;;;;;;;;14.21;87.65;95491.28;10406998;28;2008;-66
2023/03/19 15:33:46;;;;;;;;;;;;;;;13.69;90.41;95493.44;10404666;28;1993;-65
2023/03/19 15:38:49;;;;;;;;;;;;;;;13.62;91.71;95493.81;10404108;28;1950;-66
2023/03/19 15:43:51;;;;;;;;;;;;;;;14.03;90.06;95501.13;10405117;28;1970;-69
2023/03/19 15:48:54;;;;;;;;;;;;;;;13.76;91.05;95491.13;10400415;28;1975;-66
2023/03/19 15:53:57;;;;;;;;;;;;;;;13.69;90.89;95496.94;10403870;28;1963;-67
2023/03/19 15:59:00;;;;;;;;;;;;;;;13.58;91.57;95495.50;10403117;28;2083;-67
2023/03/19 16:04:03;;;;;;;;;;;;;;;13.73;91.54;95494.41;10400327;28;1946;-69
2023/03/19 16:09:05;;;;;;;;;;;;;;;13.52;nan;95491.31;10402397;28;2157;-67
2023/03/19 16:14:08;;;;;;;;;;;;;;;13.38;93.39;95506.69;10403560;28;1930;-66
2023/03/19 16:19:11;;;;;;;;;;;;;;;13.18;96.24;95507.81;10403969;28;1997;-66
2023/03/19 16:24:14;;;;;;;;;;;;;;;12.98;97.92;95517.84;10400134;28;1979;-67
2023/03/19 16:29:17;;;;;;;;;;;;;;;12.87;99.33;95519.13;10402588;28;2024;-76
2023/03/19 16:34:19;;;;;;;;;;;;;;;12.71;100.00;95523.13;10403587;28;1999;-67
2023/03/19 16:39:22;;;;;;;;;;;;;;;12.61;100.00;95526.00;10402273;28;1951;-75
2023/03/19 16:44:25;;;;;;;;;;;;;;;12.49;100.00;95528.31;10392035;28;1941;-66
2023/03/19 16:49:29;;;;;;;;;;;;;;;12.37;100.00;95532.25;10406021;28;1911;-65
2023/03/19 16:54:32;;;;;;;;;;;;;;;12.30;100.00;95537.19;10402017;28;1965;-65
2023/03/19 16:59:35;;;;;;;;;;;;;;;12.22;100.00;95540.53;10400499;28;1949;-64
2023/03/19 17:04:37;;;;;;;;;;;;;;;12.05;100.00;95538.31;10401514;28;2097;-66
2023/03/19 17:09:40;;;;;;;;;;;;;;;12.05;100.00;95554.47;10399990;28;1953;-66
2023/03/19 17:14:43;;;;;;;;;;;;;;;11.89;100.00;95564.63;10401175;28;1962;-68
2023/03/19 17:19:45;;;;;;;;;;;;;;;11.74;100.00;95567.47;10400119;28;2107;-66
2023/03/19 17:24:48;;;;;;;;;;;;;;;11.66;100.00;95565.41;10400748;28;2014;-71
2023/03/19 17:29:51;;;;;;;;;;;;;;;11.56;100.00;95573.56;10404278;28;1946;-72
2023/03/19 17:34:55;;;;;;;;;;;;;;;11.54;100.00;95578.44;10397761;28;2181;-69
2023/03/19 17:39:58;;;;;;;;;;;;;;;11.46;100.00;95571.00;10397440;28;1922;-69
2023/03/19 17:45:01;;;;;;;;;;;;;;;11.41;100.00;95579.09;10391395;28;1935;-67
2023/03/19 17:50:05;;;;;;;;;;;;;;;11.26;100.00;95586.22;10394604;28;2033;-68
2023/03/19 17:55:08;;;;;;;;;;;;;;;11.23;100.00;95577.91;10394245;28;1961;-65
2023/03/19 18:00:11;;;;;;;;;;;;;;;11.16;100.00;95588.19;10398909;28;2038;-66
2023/03/19 18:05:15;;;;;;;;;;;;;;;11.10;100.00;95587.44;10401677;28;1973;-66
2023/03/19 18:10:17;;;;;;;;;;;;;;;11.14;100.00;95590.38;10404200;28;1935;-68
2023/03/19 18:15:21;;;;;;;;;;;;;;;11.10;100.00;95592.81;10403384;28;2036;-68
2023/03/19 18:20:25;;;;;;;;;;;;;;;11.01;100.00;95592.63;10403625;28;1974;-67
2023/03/19 18:25:30;;;;;;;;;;;;;;;10.94;100.00;95599.38;10394818;28;1946;-65
2023/03/19 18:30:33;;;;;;;;;;;;;;;10.89;100.00;95594.06;10392274;28;2001;-67
2023/03/19 18:35:36;;;;;;;;;;;;;;;10.82;100.00;95595.16;10400770;28;2034;-72
2023/03/19 18:40:38;;;;;;;;;;;;;;;10.63;100.00;95596.91;10402713;28;2017;-72
2023/03/19 18:45:41;;;;;;;;;;;;;;;10.48;100.00;95596.97;10393348;28;1953;-71
2023/03/19 18:50:45;;;;;;;;;;;;;;;10.36;100.00;95607.22;10387188;28;2063;-70
2023/03/19 18:55:48;;;;;;;;;;;;;;;10.43;100.00;95602.38;10402960;28;1978;-71
2023/03/19 19:00:50;;;;;;;;;;;;;;;10.51;100.00;95610.66;10410133;28;1973;-69
2023/03/19 19:05:54;;;;;;;;;;;;;;;10.66;100.00;95617.84;10403271;28;1964;-73
2023/03/19 19:10:57;;;;;;;;;;;;;;;10.53;100.00;95618.44;10407857;28;1959;-70
2023/03/19 19:16:01;;;;;;;;;;;;;;;10.48;100.00;95613.91;10399046;28;2009;-70
2023/03/19 19:21:04;;;;;;;;;;;;;;;10.42;100.00;95622.25;10400772;28;1979;-67
2023/03/19 19:26:06;;;;;;;;;;;;;;;10.26;100.00;95625.03;10396855;28;2095;-65
2023/03/19 19:31:10;;;;;;;;;;;;;;;10.11;100.00;95635.78;10432770;28;1972;-67
2023/03/19 19:36:14;;;;;;;;;;;;;;;10.06;100.00;95635.81;10397446;28;1935;-66
2023/03/19 19:41:16;;;;;;;;;;;;;;;10.21;100.00;95643.81;10398879;28;2035;-74
2023/03/19 19:46:19;;;;;;;;;;;;;;;10.47;100.00;95652.59;10402570;28;1987;-66
2023/03/19 19:51:21;;;;;;;;;;;;;;;10.62;100.00;95665.16;10404269;28;2054;-67
2023/03/19 19:56:24;;;;;;;;;;;;;;;10.54;100.00;95663.06;10399982;28;1982;-68
2023/03/19 20:01:26;;;;;;;;;;;;;;;10.58;100.00;95671.38;10397331;28;2025;-68
2023/03/19 20:06:29;;;;;;;;;;;;;;;10.56;100.00;95677.03;10435027;28;2062;-67
2023/03/19 20:11:31;;;;;;;;;;;;;;;10.47;100.00;95684.84;10399235;28;1990;-69
2023/03/19 20:16:34;;;;;;;;;;;;;;;10.53;100.00;95694.50;10400328;28;2091;-68
2023/03/19 20:21:37;;;;;;;;;;;;;;;10.38;100.00;95707.22;10407099;28;1952;-70
2023/03/19 20:26:40;;;;;;;;;;;;;;;10.44;100.00;95711.50;10397734;28;2045;-73
2023/03/19 20:31:42;;;;;;;;;;;;;;;10.39;100.00;95716.88;10395507;28;2139;-77
2023/03/19 20:36:45;;;;;;;;;;;;;;;10.32;100.00;95729.78;10398811;28;2036;-67
2023/03/19 20:41:48;;;;;;;;;;;;;;;10.27;100.00;95731.41;10406796;28;1963;-66
2023/03/19 20:46:51;;;;;;;;;;;;;;;10.17;100.00;95744.00;10403622;28;2064;-68
2023/03/19 20:51:53;;;;;;;;;;;;;;;10.07;100.00;95747.53;10401742;28;1949;-68
2023/03/19 20:56:57;;;;;;;;;;;;;;;9.92;100.00;95755.59;10392828;28;2021;-67
2023/03/19 21:01:59;;;;;;;;;;;;;;;9.80;100.00;95761.25;10397380;28;2093;-66
2023/03/19 21:07:01;;;;;;;;;;;;;;;9.74;100.00;95773.88;10395743;28;1964;-66
2023/03/19 21:12:04;;;;;;;;;;;;;;;9.66;100.00;95779.75;10397059;28;1943;-67
2023/03/19 21:17:07;;;;;;;;;;;;;;;9.43;100.00;95781.06;10396046;28;1985;-68
2023/03/19 21:22:11;;;;;;;;;;;;;;;9.21;100.00;95796.56;10395038;28;1965;-66
2023/03/19 21:27:14;;;;;;;;;;;;;;;8.86;100.00;95807.97;10394096;28;1955;-66
2023/03/19 21:32:18;;;;;;;;;;;;;;;8.57;100.00;95829.00;10397439;28;1975;-68
2023/03/19 21:37:22;;;;;;;;;;;;;;;8.41;100.00;95836.16;10388995;28;2068;-67
2023/03/19 21:42:25;;;;;;;;;;;;;;;8.33;100.00;95836.56;10391748;28;2060;-68
2023/03/19 21:47:27;;;;;;;;;;;;;;;8.28;100.00;95839.25;10395885;28;2219;-68
2023/03/19 21:52:30;;;;;;;;;;;;;;;8.26;100.00;95846.69;10392585;28;1981;-68
2023/03/19 21:57:44;;;;;;;;;;;;;;;8.28;100.00;95852.63;10395034;28;1990;-69
2023/03/19 22:02:47;;;;;;;;;;;;;;;8.30;100.00;95845.94;10388697;28;2048;-69
2023/03/19 22:07:49;;;;;;;;;;;;;;;8.23;100.00;95847.22;10389941;28;2050;-75
2023/03/19 22:12:52;;;;;;;;;;;;;;;8.23;100.00;95850.72;10388804;28;1962;-68
2023/03/19 22:17:54;;;;;;;;;;;;;;;8.17;100.00;95851.75;10394654;28;2064;-68
2023/03/19 22:22:58;;;;;;;;;;;;;;;8.12;100.00;95854.38;10393150;28;1958;-68
2023/03/19 22:28:01;;;;;;;;;;;;;;;8.19;100.00;95854.16;10391807;28;2031;-68
2023/03/19 22:33:05;;;;;;;;;;;;;;;8.14;100.00;95852.22;10407713;28;1947;-67
2023/03/19 22:38:08;;;;;;;;;;;;;;;8.21;100.00;95858.19;10389798;28;1965;-68
2023/03/19 22:43:10;;;;;;;;;;;;;;;8.26;100.00;95854.75;10411252;28;1934;-66
2023/03/19 22:48:13;;;;;;;;;;;;;;;8.25;100.00;95853.13;10407140;28;2007;-69
2023/03/19 22:53:16;;;;;;;;;;;;;;;8.26;100.00;95860.09;10398485;28;1958;-67
2023/03/19 22:58:19;;;;;;;;;;;;;;;8.27;100.00;95857.19;10398527;28;1939;-68
2023/03/19 23:03:21;;;;;;;;;;;;;;;8.26;100.00;95850.19;10397097;28;2147;-67
2023/03/19 23:08:24;;;;;;;;;;;;;;;8.31;100.00;95860.13;10405869;28;2042;-67
2023/03/19 23:13:27;;;;;;;;;;;;;;;8.37;100.00;95867.19;10398961;28;2024;-68
2023/03/19 23:18:30;;;;;;;;;;;;;;;8.36;100.00;95865.56;10396312;28;2037;-67
2023/03/19 23:23:32;;;;;;;;;;;;;;;8.37;100.00;95859.13;10395036;28;2061;-67
2023/03/19 23:28:45;;;;;;;;;;;;;;;8.42;100.00;95859.19;10399771;28;1974;-67
2023/03/19 23:33:47;;;;;;;;;;;;;;;8.43;100.00;95857.31;10393355;28;2143;-67
2023/03/19 23:38:50;;;;;;;;;;;;;;;8.49;100.00;95865.13;10396742;28;2117;-66
2023/03/19 23:43:53;;;;;;;;;;;;;;;8.41;100.00;95857.56;10398067;28;1982;-66
2023/03/19 23:48:56;;;;;;;;;;;;;;;8.39;100.00;95862.34;10396103;28;2098;-67
2023/03/19 23:54:00;;;;;;;;;;;;;;;8.35;100.00;95863.94;10394873;28;2055;-67
2023/03/19 23:59:03;;;;;;;;;;;;;;;8.35;100.00;95867.44;10396822;28;1980;-67
